Time,TemperatureF,DewpointF,PressureIn,WindDirection,WindDirectionDegrees,WindSpeedMPH,WindSpeedGustMPH,Humidity,HourlyPrecipIn,Conditions,Clouds,dailyrainin,SolarRadiationWatts/m^2,SoftwareType,DateUTC
2013-06-18 00:00:00,70.5,67.1,29.88,NE,46,0.0,0.0,89,0.00,,,0.00,0,Wunderground v.1.15,2013-06-18 04:00:00,
2013-06-18 00:10:00,70.2,67.1,29.88,NE,46,0.0,0.0,90,0.00,,,0.00,0,Wunderground v.1.15,2013-06-18 04:10:00,
2013-06-18 00:20:00,70.0,66.9,29.87,NE,46,0.0,0.0,90,0.00,,,0.00,0,Wunderground v.1.15,2013-06-18 04:20:00,
2013-06-18 00:30:00,70.0,66.9,29.87,NE,46,0.0,0.0,90,0.00,,,0.00,0,Wunderground v.1.15,2013-06-18 04:30:00,
2013-06-18 00:40:00,69.4,66.7,29.86,NE,46,0.0,0.0,91,0.00,,,0.00,0,Wunderground v.1.15,2013-06-18 04:40:00,
2013-06-18 00:50:00,69.4,67.0,29.86,NE,46,0.0,0.0,92,0.00,,,0.00,0,Wunderground v.1.15,2013-06-18 04:50:00,
2013-06-18 01:00:00,69.3,66.6,29.85,NE,46,0.0,0.0,91,0.00,,,0.00,0,Wunderground v.1.15,2013-06-18 05:00:00,
2013-06-18 01:10:00,68.8,66.4,29.85,NE,46,0.0,0.0,92,0.00,,,0.00,0,Wunderground v.1.15,2013-06-18 05:10:00,
2013-06-18 01:20:00,68.5,66.4,29.85,NE,46,0.0,0.0,93,0.00,,,0.00,0,Wunderground v.1.15,2013-06-18 05:20:00,
2013-06-18 01:30:00,68.5,66.4,29.85,NE,48,0.0,0.0,93,0.00,,,0.00,0,Wunderground v.1.15,2013-06-18 05:30:00,
2013-06-18 01:40:00,69.3,66.9,29.85,SE,138,0.0,0.0,92,0.00,,,0.00,0,Wunderground v.1.15,2013-06-18 05:40:00,
2013-06-18 01:50:00,69.7,67.0,29.85,SE,138,0.0,0.0,91,0.00,,,0.00,0,Wunderground v.1.15,2013-06-18 05:50:00,
2013-06-18 02:00:00,69.9,66.8,29.85,SE,138,0.0,0.0,90,0.00,,,0.00,0,Wunderground v.1.15,2013-06-18 06:00:00,
2013-06-18 02:10:00,70.0,66.9,29.84,SE,138,0.0,0.0,90,0.00,,,0.00,0,Wunderground v.1.15,2013-06-18 06:10:00,
2013-06-18 02:20:00,69.7,66.6,29.84,SE,138,0.0,0.0,90,0.00,,,0.00,0,Wunderground v.1.15,2013-06-18 06:20:00,
2013-06-18 02:30:00,69.0,65.9,29.84,SE,138,0.0,0.0,90,0.00,,,0.00,0,Wunderground v.1.15,2013-06-18 06:30:00,
2013-06-18 02:40:00,68.5,66.1,29.83,SE,138,0.0,0.0,92,0.00,,,0.00,0,Wunderground v.1.15,2013-06-18 06:40:00,
2013-06-18 02:50:00,68.5,66.1,29.83,SE,138,0.0,0.0,92,0.00,,,0.00,0,Wunderground v.1.15,2013-06-18 06:50:00,
2013-06-18 03:00:00,68.0,65.9,29.83,SE,138,0.0,0.0,93,0.00,,,0.00,0,Wunderground v.1.15,2013-06-18 07:00:00,
2013-06-18 03:10:00,68.6,66.5,29.83,SE,138,0.0,0.0,93,0.00,,,0.00,0,Wunderground v.1.15,2013-06-18 07:10:00,
2013-06-18 03:20:00,68.9,66.8,29.83,SE,138,0.0,0.0,93,0.00,,,0.00,0,Wunderground v.1.15,2013-06-18 07:20:00,
2013-06-18 03:30:00,69.1,67.0,29.83,SE,138,0.0,0.0,93,0.00,,,0.00,0,Wunderground v.1.15,2013-06-18 07:30:00,
2013-06-18 03:40:00,69.1,67.0,29.82,SE,138,0.0,0.0,93,0.00,,,0.00,0,Wunderground v.1.15,2013-06-18 07:40:00,
2013-06-18 03:50:00,69.0,66.9,29.82,SE,138,0.0,0.0,93,0.00,,,0.00,0,Wunderground v.1.15,2013-06-18 07:50:00,
2013-06-18 04:00:00,69.1,67.0,29.82,SE,138,0.0,0.0,93,0.00,,,0.00,0,Wunderground v.1.15,2013-06-18 08:00:00,
2013-06-18 04:10:00,69.1,67.0,29.82,SE,138,0.0,0.0,93,0.00,,,0.00,0,Wunderground v.1.15,2013-06-18 08:10:00,
2013-06-18 04:20:00,69.1,67.0,29.81,SE,138,0.0,0.0,93,0.00,,,0.00,0,Wunderground v.1.15,2013-06-18 08:20:00,
2013-06-18 04:30:00,69.1,67.0,29.82,SE,138,0.0,0.0,93,0.00,,,0.00,0,Wunderground v.1.15,2013-06-18 08:30:00,
2013-06-18 04:40:00,69.0,66.9,29.81,SE,138,0.0,0.0,93,0.00,,,0.00,0,Wunderground v.1.15,2013-06-18 08:40:00,
2013-06-18 04:50:00,68.7,66.6,29.81,SE,138,0.0,0.0,93,0.00,,,0.00,0,Wunderground v.1.15,2013-06-18 08:50:00,
2013-06-18 05:00:00,68.4,66.3,29.82,SE,138,0.0,0.0,93,0.00,,,0.00,0,Wunderground v.1.15,2013-06-18 09:00:00,
2013-06-18 05:10:00,68.1,66.0,29.82,SE,138,0.0,0.0,93,0.00,,,0.00,0,Wunderground v.1.15,2013-06-18 09:10:00,
2013-06-18 05:20:00,67.7,65.6,29.81,SE,138,0.0,0.0,93,0.00,,,0.00,0,Wunderground v.1.15,2013-06-18 09:20:00,
2013-06-18 05:30:00,67.5,65.7,29.82,SE,138,0.0,0.0,94,0.00,,,0.00,0,Wunderground v.1.15,2013-06-18 09:30:00,
2013-06-18 05:40:00,67.6,65.8,29.82,SE,138,0.0,0.0,94,0.00,,,0.00,0,Wunderground v.1.15,2013-06-18 09:40:00,
2013-06-18 05:50:00,67.4,65.6,29.82,SE,138,0.0,0.0,94,0.00,,,0.00,0,Wunderground v.1.15,2013-06-18 09:50:00,
2013-06-18 06:00:00,67.1,65.3,29.83,SE,138,0.0,0.0,94,0.00,,,0.00,5,Wunderground v.1.15,2013-06-18 10:00:00,
2013-06-18 06:10:00,67.2,65.7,29.82,SE,138,0.0,0.0,95,0.00,,,0.00,11,Wunderground v.1.15,2013-06-18 10:10:00,
2013-06-18 06:20:00,67.0,65.5,29.83,SE,138,0.0,0.0,95,0.00,,,0.00,18,Wunderground v.1.15,2013-06-18 10:20:00,
2013-06-18 06:30:00,67.4,65.9,29.83,SE,138,0.0,0.0,95,0.00,,,0.00,35,Wunderground v.1.15,2013-06-18 10:30:00,
2013-06-18 06:40:00,67.7,66.2,29.83,SE,138,0.0,0.0,95,0.00,,,0.00,49,Wunderground v.1.15,2013-06-18 10:40:00,
2013-06-18 06:50:00,67.8,66.6,29.83,SE,138,0.0,0.0,96,0.00,,,0.00,77,Wunderground v.1.15,2013-06-18 10:50:00,
2013-06-18 07:00:00,68.0,66.8,29.83,SE,138,0.0,0.0,96,0.00,,,0.00,81,Wunderground v.1.15,2013-06-18 11:00:00,
2013-06-18 07:10:00,68.3,67.1,29.83,SE,138,0.0,0.0,96,0.00,,,0.00,69,Wunderground v.1.15,2013-06-18 11:10:00,
2013-06-18 07:20:00,68.7,67.2,29.83,SE,138,0.0,0.0,95,0.00,,,0.00,67,Wunderground v.1.15,2013-06-18 11:20:00,
2013-06-18 07:30:00,68.6,67.1,29.84,SE,138,0.0,0.0,95,0.00,,,0.00,70,Wunderground v.1.15,2013-06-18 11:30:00,
2013-06-18 07:40:00,68.8,67.3,29.84,SE,138,0.0,0.0,95,0.00,,,0.00,113,Wunderground v.1.15,2013-06-18 11:40:00,
2013-06-18 07:50:00,69.0,67.5,29.83,SE,138,0.0,0.0,95,0.00,,,0.00,116,Wunderground v.1.15,2013-06-18 11:50:00,
2013-06-18 08:00:00,69.9,68.4,29.83,SE,138,0.0,0.0,95,0.00,,,0.00,306,Wunderground v.1.15,2013-06-18 12:00:00,
2013-06-18 08:10:00,70.1,68.0,29.83,ESE,107,0.0,0.0,93,0.00,,,0.00,162,Wunderground v.1.15,2013-06-18 12:10:00,
2013-06-18 08:20:00,71.1,69.0,29.83,ESE,107,0.0,0.0,93,0.00,,,0.00,352,Wunderground v.1.15,2013-06-18 12:20:00,
2013-06-18 08:30:00,71.7,68.6,29.84,East,101,0.0,0.0,90,0.00,,,0.00,221,Wunderground v.1.15,2013-06-18 12:30:00,
2013-06-18 08:40:00,71.4,68.3,29.83,East,99,0.0,0.0,90,0.00,,,0.00,178,Wunderground v.1.15,2013-06-18 12:40:00,
2013-06-18 08:50:00,71.3,68.2,29.84,East,99,0.0,0.0,90,0.00,,,0.00,144,Wunderground v.1.15,2013-06-18 12:50:00,
2013-06-18 09:00:00,71.7,68.6,29.84,East,99,0.0,0.0,90,0.00,,,0.00,246,Wunderground v.1.15,2013-06-18 13:00:00,
2013-06-18 09:10:00,71.9,68.8,29.84,East,99,0.0,0.0,90,0.00,,,0.00,155,Wunderground v.1.15,2013-06-18 13:10:00,
2013-06-18 09:20:00,71.9,68.5,29.84,East,99,0.0,0.0,89,0.00,,,0.00,146,Wunderground v.1.15,2013-06-18 13:20:00,
2013-06-18 09:30:00,72.1,68.7,29.84,ESE,105,0.0,0.0,89,0.00,,,0.00,151,Wunderground v.1.15,2013-06-18 13:30:00,
2013-06-18 09:40:00,72.5,69.1,29.84,SE,138,0.0,0.0,89,0.00,,,0.00,165,Wunderground v.1.15,2013-06-18 13:40:00,
2013-06-18 09:50:00,72.6,68.8,29.84,SE,142,0.0,0.0,88,0.00,,,0.00,111,Wunderground v.1.15,2013-06-18 13:50:00,
2013-06-18 10:00:00,72.3,68.5,29.84,SE,138,1.0,5.0,88,0.00,,,0.00,120,Wunderground v.1.15,2013-06-18 14:00:00,
2013-06-18 10:10:00,71.8,68.1,29.83,SE,142,1.0,1.0,88,0.00,,,0.00,155,Wunderground v.1.15,2013-06-18 14:10:00,
2013-06-18 10:20:00,71.5,68.1,29.83,SE,142,0.0,0.0,89,0.00,,,0.00,156,Wunderground v.1.15,2013-06-18 14:20:00,
2013-06-18 10:30:00,72.1,69.0,29.83,SE,142,0.0,0.0,90,0.00,,,0.00,271,Wunderground v.1.15,2013-06-18 14:30:00,
2013-06-18 10:40:00,72.0,68.6,29.83,SE,142,0.0,0.0,89,0.00,,,0.00,183,Wunderground v.1.15,2013-06-18 14:40:00,
2013-06-18 10:50:00,72.1,68.3,29.83,SE,142,0.0,0.0,88,0.00,,,0.00,188,Wunderground v.1.15,2013-06-18 14:50:00,
2013-06-18 11:00:00,72.6,69.2,29.83,SE,142,0.0,0.0,89,0.00,,,0.00,155,Wunderground v.1.15,2013-06-18 15:00:00,
2013-06-18 11:10:00,72.6,69.2,29.83,SE,142,0.0,0.0,89,0.00,,,0.00,179,Wunderground v.1.15,2013-06-18 15:10:00,
2013-06-18 11:20:00,72.6,68.8,29.83,SE,142,0.0,0.0,88,0.00,,,0.00,230,Wunderground v.1.15,2013-06-18 15:20:00,
2013-06-18 11:30:00,72.7,69.3,29.83,SE,142,0.0,0.0,89,0.00,,,0.00,257,Wunderground v.1.15,2013-06-18 15:30:00,
2013-06-18 11:40:00,73.0,69.6,29.82,SE,142,0.0,0.0,89,0.00,,,0.00,253,Wunderground v.1.15,2013-06-18 15:40:00,
2013-06-18 11:50:00,73.2,69.1,29.83,SE,142,0.0,0.0,87,0.00,,,0.00,243,Wunderground v.1.15,2013-06-18 15:50:00,
2013-06-18 12:00:00,73.1,68.7,29.83,SE,142,0.0,0.0,86,0.00,,,0.00,221,Wunderground v.1.15,2013-06-18 16:00:00,
2013-06-18 12:10:00,73.0,68.9,29.83,SE,139,0.0,0.0,87,0.00,,,0.00,109,Wunderground v.1.15,2013-06-18 16:10:00,
2013-06-18 12:20:00,72.9,69.1,29.83,SE,146,2.0,3.0,88,0.00,,,0.00,105,Wunderground v.1.15,2013-06-18 16:20:00,
2013-06-18 12:30:00,72.6,69.2,29.83,SE,140,1.0,1.0,89,0.00,,,0.00,178,Wunderground v.1.15,2013-06-18 16:30:00,
2013-06-18 12:40:00,72.6,68.8,29.83,ESE,122,1.0,1.0,88,0.00,,,0.00,160,Wunderground v.1.15,2013-06-18 16:40:00,
2013-06-18 12:50:00,72.8,69.0,29.83,SSE,150,1.0,1.0,88,0.00,,,0.00,181,Wunderground v.1.15,2013-06-18 16:50:00,
2013-06-18 13:00:00,72.9,68.8,29.83,SSE,150,0.0,0.0,87,0.00,,,0.00,118,Wunderground v.1.15,2013-06-18 17:00:00,
2013-06-18 13:10:00,73.1,69.7,29.83,South,173,0.0,0.0,89,0.00,,,0.00,144,Wunderground v.1.15,2013-06-18 17:10:00,
2013-06-18 13:20:00,72.6,69.5,29.83,West,263,1.0,3.0,90,0.00,,,0.00,93,Wunderground v.1.15,2013-06-18 17:20:00,
2013-06-18 13:30:00,71.3,68.5,29.83,West,265,1.0,1.0,91,0.26,,,0.04,100,Wunderground v.1.15,2013-06-18 17:30:00,
2013-06-18 13:40:00,70.6,68.2,29.83,West,265,0.0,0.0,92,0.12,,,0.06,121,Wunderground v.1.15,2013-06-18 17:40:00,
2013-06-18 13:50:00,70.8,69.0,29.83,West,264,0.0,0.0,94,0.04,,,0.06,169,Wunderground v.1.15,2013-06-18 17:50:00,
2013-06-18 14:00:00,70.9,69.1,29.83,West,265,0.0,0.0,94,0.00,,,0.06,206,Wunderground v.1.15,2013-06-18 18:00:00,
2013-06-18 14:10:00,71.0,69.2,29.82,West,265,0.0,0.0,94,0.00,,,0.06,258,Wunderground v.1.15,2013-06-18 18:10:00,
2013-06-18 14:20:00,71.3,69.5,29.81,West,263,1.0,1.0,94,0.00,,,0.06,308,Wunderground v.1.15,2013-06-18 18:20:00,
2013-06-18 14:30:00,71.9,70.1,29.80,West,259,1.0,1.0,94,0.00,,,0.06,359,Wunderground v.1.15,2013-06-18 18:30:00,
2013-06-18 14:40:00,72.8,70.7,29.80,West,262,0.0,0.0,93,0.00,,,0.07,396,Wunderground v.1.15,2013-06-18 18:40:00,
2013-06-18 14:50:00,73.3,70.5,29.80,West,266,1.0,1.0,91,0.00,,,0.07,341,Wunderground v.1.15,2013-06-18 18:50:00,
2013-06-18 15:00:00,73.7,70.6,29.79,West,266,0.0,0.0,90,0.00,,,0.07,250,Wunderground v.1.15,2013-06-18 19:00:00,
2013-06-18 15:10:00,74.2,70.4,29.79,West,261,0.0,0.0,88,0.00,,,0.07,200,Wunderground v.1.15,2013-06-18 19:10:00,
2013-06-18 15:20:00,74.3,70.8,29.79,West,261,0.0,0.0,89,0.00,,,0.07,190,Wunderground v.1.15,2013-06-18 19:20:00,
2013-06-18 15:30:00,74.4,70.9,29.79,West,259,0.0,0.0,89,0.00,,,0.07,197,Wunderground v.1.15,2013-06-18 19:30:00,
2013-06-18 15:40:00,74.3,70.8,29.78,South,175,0.0,0.0,89,0.00,,,0.07,206,Wunderground v.1.15,2013-06-18 19:40:00,
2013-06-18 15:50:00,74.1,71.0,29.78,South,175,0.0,0.0,90,0.00,,,0.07,204,Wunderground v.1.15,2013-06-18 19:50:00,
2013-06-18 16:00:00,73.6,70.5,29.77,SSE,160,0.0,0.0,90,0.00,,,0.07,230,Wunderground v.1.15,2013-06-18 20:00:00,
2013-06-18 16:10:00,73.4,70.3,29.77,SSE,160,0.0,0.0,90,0.00,,,0.07,178,Wunderground v.1.15,2013-06-18 20:10:00,
2013-06-18 16:20:00,73.3,70.2,29.76,SSE,160,0.0,0.0,90,0.00,,,0.07,139,Wunderground v.1.15,2013-06-18 20:20:00,
2013-06-18 16:30:00,73.2,70.4,29.77,SSE,160,0.0,0.0,91,0.00,,,0.07,146,Wunderground v.1.15,2013-06-18 20:30:00,
2013-06-18 16:40:00,73.0,70.2,29.78,SSE,160,0.0,0.0,91,0.00,,,0.07,178,Wunderground v.1.15,2013-06-18 20:40:00,
2013-06-18 16:50:00,73.4,70.6,29.78,SSE,160,0.0,0.0,91,0.00,,,0.07,176,Wunderground v.1.15,2013-06-18 20:50:00,
2013-06-18 17:00:00,73.3,70.5,29.77,SSE,160,0.0,0.0,91,0.00,,,0.07,207,Wunderground v.1.15,2013-06-18 21:00:00,
2013-06-18 17:10:00,73.2,70.4,29.77,SSE,160,1.0,1.0,91,0.00,,,0.07,171,Wunderground v.1.15,2013-06-18 21:10:00,
2013-06-18 17:20:00,73.2,70.4,29.76,SSE,160,0.0,1.0,91,0.00,,,0.07,149,Wunderground v.1.15,2013-06-18 21:20:00,
2013-06-18 17:30:00,73.1,70.6,29.76,SSE,159,1.0,1.0,92,0.00,,,0.07,188,Wunderground v.1.15,2013-06-18 21:30:00,
2013-06-18 17:40:00,72.9,70.4,29.76,SE,140,0.0,0.0,92,0.00,,,0.07,142,Wunderground v.1.15,2013-06-18 21:40:00,
2013-06-18 17:50:00,72.8,70.3,29.77,SE,140,0.0,0.0,92,0.00,,,0.07,174,Wunderground v.1.15,2013-06-18 21:50:00,
2013-06-18 18:00:00,73.1,70.6,29.78,SE,143,0.0,0.0,92,0.00,,,0.07,223,Wunderground v.1.15,2013-06-18 22:00:00,
2013-06-18 18:10:00,73.3,70.5,29.77,SE,143,0.0,0.0,91,0.00,,,0.07,146,Wunderground v.1.15,2013-06-18 22:10:00,
2013-06-18 18:20:00,73.3,70.5,29.77,SE,140,0.0,0.0,91,0.00,,,0.07,260,Wunderground v.1.15,2013-06-18 22:20:00,
2013-06-18 18:30:00,74.6,71.5,29.78,South,188,0.0,0.0,90,0.00,,,0.07,156,Wunderground v.1.15,2013-06-18 22:30:00,
2013-06-18 18:40:00,75.0,71.5,29.78,WSW,256,0.0,0.0,89,0.00,,,0.07,171,Wunderground v.1.15,2013-06-18 22:40:00,
2013-06-18 18:50:00,74.9,71.1,29.77,SW,216,0.0,0.0,88,0.00,,,0.07,149,Wunderground v.1.15,2013-06-18 22:50:00,
2013-06-18 19:00:00,74.6,70.5,29.77,SW,216,0.0,0.0,87,0.00,,,0.07,86,Wunderground v.1.15,2013-06-18 23:00:00,
2013-06-18 19:10:00,74.9,71.1,29.78,SW,215,0.0,0.0,88,0.00,,,0.07,144,Wunderground v.1.15,2013-06-18 23:10:00,
2013-06-18 19:20:00,75.1,71.3,29.78,SW,215,0.0,0.0,88,0.00,,,0.07,121,Wunderground v.1.15,2013-06-18 23:20:00,
2013-06-18 19:30:00,74.8,71.0,29.78,SW,215,0.0,0.0,88,0.00,,,0.07,62,Wunderground v.1.15,2013-06-18 23:30:00,
2013-06-18 19:40:00,74.4,70.6,29.79,SW,229,0.0,0.0,88,0.00,,,0.07,44,Wunderground v.1.15,2013-06-18 23:40:00,
2013-06-18 19:50:00,74.0,70.6,29.78,SW,229,0.0,0.0,89,0.00,,,0.07,25,Wunderground v.1.15,2013-06-18 23:50:00,
2013-06-18 20:00:00,73.5,70.4,29.78,SW,229,0.0,0.0,90,0.00,,,0.07,14,Wunderground v.1.15,2013-06-19 00:00:00,
2013-06-18 20:10:00,72.9,70.1,29.79,SW,229,0.0,0.0,91,0.00,,,0.07,9,Wunderground v.1.15,2013-06-19 00:10:00,
2013-06-18 20:20:00,72.2,69.7,29.79,SW,229,0.0,0.0,92,0.00,,,0.07,5,Wunderground v.1.15,2013-06-19 00:20:00,
2013-06-18 20:30:00,71.7,69.3,29.79,SW,229,0.0,0.0,92,0.00,,,0.07,0,Wunderground v.1.15,2013-06-19 00:30:00,
2013-06-18 20:40:00,71.3,69.2,29.79,SW,229,0.0,0.0,93,0.00,,,0.07,0,Wunderground v.1.15,2013-06-19 00:40:00,
2013-06-18 20:50:00,71.0,69.2,29.80,SW,229,0.0,0.0,94,0.00,,,0.07,0,Wunderground v.1.15,2013-06-19 00:50:00,
2013-06-18 21:00:00,70.4,68.6,29.81,SW,229,0.0,0.0,94,0.00,,,0.07,0,Wunderground v.1.15,2013-06-19 01:00:00,
2013-06-18 21:10:00,70.2,68.4,29.81,ESE,123,0.0,0.0,94,0.00,,,0.07,0,Wunderground v.1.15,2013-06-19 01:10:00,
2013-06-18 21:20:00,70.2,68.7,29.81,ESE,123,0.0,0.0,95,0.00,,,0.07,0,Wunderground v.1.15,2013-06-19 01:20:00,
2013-06-18 21:30:00,69.9,68.4,29.81,ESE,123,0.0,0.0,95,0.00,,,0.07,0,Wunderground v.1.15,2013-06-19 01:30:00,
2013-06-18 21:40:00,70.1,68.6,29.82,ESE,123,0.0,0.0,95,0.00,,,0.07,0,Wunderground v.1.15,2013-06-19 01:40:00,
2013-06-18 21:50:00,70.1,68.6,29.82,ESE,123,0.0,0.0,95,0.00,,,0.07,0,Wunderground v.1.15,2013-06-19 01:50:00,
2013-06-18 22:00:00,70.1,68.9,29.82,ESE,123,0.0,0.0,96,0.00,,,0.07,0,Wunderground v.1.15,2013-06-19 02:00:00,
2013-06-18 22:10:00,70.2,69.0,29.83,SE,137,0.0,0.0,96,0.00,,,0.07,0,Wunderground v.1.15,2013-06-19 02:10:00,
2013-06-18 22:20:00,70.0,68.8,29.83,SE,138,0.0,0.0,96,0.00,,,0.07,0,Wunderground v.1.15,2013-06-19 02:20:00,
2013-06-18 22:30:00,69.9,68.7,29.83,SE,138,0.0,0.0,96,0.00,,,0.07,0,Wunderground v.1.15,2013-06-19 02:30:00,
2013-06-18 22:40:00,69.6,68.4,29.84,SSE,157,0.0,0.0,96,0.00,,,0.07,0,Wunderground v.1.15,2013-06-19 02:40:00,
2013-06-18 22:50:00,69.5,68.3,29.84,ESE,107,1.0,1.0,96,0.00,,,0.07,0,Wunderground v.1.15,2013-06-19 02:50:00,
2013-06-18 23:00:00,68.2,66.7,29.85,East,84,2.0,4.0,95,0.00,,,0.07,0,Wunderground v.1.15,2013-06-19 03:00:00,
2013-06-18 23:10:00,67.6,66.1,29.84,SSE,153,4.0,4.0,95,0.57,,,0.14,0,Wunderground v.1.15,2013-06-19 03:10:00,
2013-06-18 23:20:00,67.3,65.5,29.85,SE,128,2.0,2.0,94,0.14,,,0.16,0,Wunderground v.1.15,2013-06-19 03:20:00,
2013-06-18 23:30:00,66.9,65.4,29.85,South,171,0.0,0.0,95,0.04,,,0.16,0,Wunderground v.1.15,2013-06-19 03:30:00,
2013-06-18 23:40:00,66.3,64.8,29.85,SSE,165,0.0,0.0,95,0.00,,,0.16,0,Wunderground v.1.15,2013-06-19 03:40:00,
2013-06-18 23:50:00,66.0,64.5,29.86,SE,136,0.0,0.0,95,0.00,,,0.16,0,Wunderground v.1.15,2013-06-19 03:50:00,